Augusta, WI

10:56 AM CDT on September 04, 2015 (GMT -0500)
KWIOSSEO2 | | Change Station
CLOSE
Current Station
Personal Weather Station
Location: Osseo, WI
Elevation: 997 ft
Nearby Weather Stations

Elev 997 ft 44.59 °N, 91.27 °W | Updated 3 minutes ago

Mostly Cloudy
Mostly Cloudy
76.5 °F
Feels Like 78 °F
N
1.0
Wind Variable Wind from SW
Gusts 5.0 mph

Today
High -- | Low -- °F
--% Chance of Precip.
Yesterday
High -- | Low -- °F
Precip. -- in
6:30 AM 7:36 PM
Waning Gibbous, 58% visible
Pressure 30.00 in
Visibility 10.0 miles
Clouds Mostly Cloudy 4600 ft
Heat Index 78 °F
Dew Point 70 °F
Humidity 79%
Rainfall Not available.
Snow Depth Not available.
UV 2 out of 12
Pollen 9.50 out of 12
Air Quality Not available.
Flu Activity Not available.
METAR KEAU 041456Z 14008KT 10SM BKN046 24/18 A3001 RMK AO2 SLP157 T02390183 51007
Pressure 30.00 in
Visibility 10.0 miles
Clouds Mostly Cloudy 4600 ft
Heat Index 78 °F
Dew Point 70 °F
Humidity 79%
Rainfall Not available.
Snow Depth Not available.
UV 2 out of 12
Pollen 9.50 out of 12
Air Quality Not available.
Flu Activity Not available.
METAR KEAU 041456Z 14008KT 10SM BKN046 24/18 A3001 RMK AO2 SLP157 T02390183 51007

10-Day Weather Forecast

×

Almanac

Astronomy

Sep. 04, 2015 Rise Set
Actual Time
Civil Twilight
Nautical Twilight
Astronomical Twilight
Moon
Length of Visible Light
Length of Day
Tomorrow will be .
, % of the Moon is Illuminated

Today's Extremes

State Highs State Lows

Community

WunderPhotos

Upload Photos

1,852,197 photos uploaded!

WunderBlogs® & News

Nearby

Air Quality

  Air Quality AQ Index Pollutant
Not available.

Snow Depth

Station Depth Elevation

Earthquake Activity

City Distance Mag. Time & Date
Minimum magnitude displayed is 2.5.

Coastal Water Temperatures

Place Temperature

Stations

Nearby Weather Stations

Station Location Temp. Windchill Dew Point Humidity Wind Precip. Elev Updated Type